sensor_id;sensor_type;location;lat;lon;timestamp;P1;durP1;ratioP1;P2;durP2;ratioP2
13457;SDS011;6801;53.018;11.560;2023-07-20T00:01:52;5.20;;;1.90;;
13457;SDS011;6801;53.018;11.560;2023-07-20T00:04:20;2.15;;;1.58;;
13457;SDS011;6801;53.018;11.560;2023-07-20T00:06:47;4.35;;;1.80;;
13457;SDS011;6801;53.018;11.560;2023-07-20T00:09:14;5.35;;;2.40;;
13457;SDS011;6801;53.018;11.560;2023-07-20T00:11:47;6.35;;;2.13;;
13457;SDS011;6801;53.018;11.560;2023-07-20T00:14:17;4.35;;;2.17;;
13457;SDS011;6801;53.018;11.560;2023-07-20T00:16:44;3.60;;;1.95;;
13457;SDS011;6801;53.018;11.560;2023-07-20T00:19:14;4.20;;;2.25;;
13457;SDS011;6801;53.018;11.560;2023-07-20T00:21:42;4.03;;;2.10;;
13457;SDS011;6801;53.018;11.560;2023-07-20T00:24:09;5.30;;;2.40;;
13457;SDS011;6801;53.018;11.560;2023-07-20T00:26:36;6.38;;;2.42;;
13457;SDS011;6801;53.018;11.560;2023-07-20T00:29:03;3.88;;;1.92;;
13457;SDS011;6801;53.018;11.560;2023-07-20T00:31:32;7.47;;;2.17;;
13457;SDS011;6801;53.018;11.560;2023-07-20T00:34:01;4.45;;;2.13;;
13457;SDS011;6801;53.018;11.560;2023-07-20T00:36:28;4.13;;;1.67;;
13457;SDS011;6801;53.018;11.560;2023-07-20T00:38:56;5.68;;;1.77;;
13457;SDS011;6801;53.018;11.560;2023-07-20T00:41:23;8.68;;;3.03;;
13457;SDS011;6801;53.018;11.560;2023-07-20T00:43:54;6.60;;;2.30;;
13457;SDS011;6801;53.018;11.560;2023-07-20T00:46:22;5.80;;;2.28;;
13457;SDS011;6801;53.018;11.560;2023-07-20T00:48:52;4.35;;;2.05;;
13457;SDS011;6801;53.018;11.560;2023-07-20T00:51:20;3.08;;;1.38;;
13457;SDS011;6801;53.018;11.560;2023-07-20T00:53:49;2.90;;;2.13;;
13457;SDS011;6801;53.018;11.560;2023-07-20T00:56:17;6.13;;;2.20;;
13457;SDS011;6801;53.018;11.560;2023-07-20T00:58:45;3.30;;;1.60;;
13457;SDS011;6801;53.018;11.560;2023-07-20T01:01:12;4.15;;;2.28;;
13457;SDS011;6801;53.018;11.560;2023-07-20T01:03:39;6.30;;;1.25;;
13457;SDS011;6801;53.018;11.560;2023-07-20T01:06:12;2.85;;;1.40;;
13457;SDS011;6801;53.018;11.560;2023-07-20T01:08:46;4.03;;;1.98;;
13457;SDS011;6801;53.018;11.560;2023-07-20T01:11:22;4.15;;;1.73;;
13457;SDS011;6801;53.018;11.560;2023-07-20T01:13:55;1.77;;;1.20;;
13457;SDS011;6801;53.018;11.560;2023-07-20T01:16:22;2.80;;;1.50;;
13457;SDS011;6801;53.018;11.560;2023-07-20T01:18:49;3.83;;;2.13;;
13457;SDS011;6801;53.018;11.560;2023-07-20T01:21:21;6.82;;;2.05;;
13457;SDS011;6801;53.018;11.560;2023-07-20T01:24:01;3.00;;;1.20;;
13457;SDS011;6801;53.018;11.560;2023-07-20T01:26:49;6.80;;;2.03;;
13457;SDS011;6801;53.018;11.560;2023-07-20T01:29:31;4.68;;;1.50;;
13457;SDS011;6801;53.018;11.560;2023-07-20T01:32:10;3.42;;;1.60;;
13457;SDS011;6801;53.018;11.560;2023-07-20T01:34:37;3.00;;;1.60;;
13457;SDS011;6801;53.018;11.560;2023-07-20T01:37:06;3.88;;;1.33;;
13457;SDS011;6801;53.018;11.560;2023-07-20T01:39:35;2.55;;;1.40;;
13457;SDS011;6801;53.018;11.560;2023-07-20T01:42:03;3.40;;;1.60;;
13457;SDS011;6801;53.018;11.560;2023-07-20T01:44:31;6.85;;;1.92;;
13457;SDS011;6801;53.018;11.560;2023-07-20T01:46:59;6.75;;;2.50;;
13457;SDS011;6801;53.018;11.560;2023-07-20T01:49:27;1.92;;;0.98;;
13457;SDS011;6801;53.018;11.560;2023-07-20T01:51:54;3.22;;;1.38;;
13457;SDS011;6801;53.018;11.560;2023-07-20T01:54:21;9.52;;;1.90;;
13457;SDS011;6801;53.018;11.560;2023-07-20T01:56:48;3.35;;;1.60;;
13457;SDS011;6801;53.018;11.560;2023-07-20T01:59:15;2.55;;;1.67;;
13457;SDS011;6801;53.018;11.560;2023-07-20T02:01:42;2.70;;;1.50;;
13457;SDS011;6801;53.018;11.560;2023-07-20T02:04:10;3.63;;;1.08;;
13457;SDS011;6801;53.018;11.560;2023-07-20T02:06:39;2.55;;;1.35;;
13457;SDS011;6801;53.018;11.560;2023-07-20T02:09:06;5.20;;;2.28;;
13457;SDS011;6801;53.018;11.560;2023-07-20T02:11:33;5.05;;;2.42;;
13457;SDS011;6801;53.018;11.560;2023-07-20T02:14:00;3.63;;;2.35;;
13457;SDS011;6801;53.018;11.560;2023-07-20T02:16:28;4.72;;;2.90;;
13457;SDS011;6801;53.018;11.560;2023-07-20T02:18:56;4.25;;;1.77;;
13457;SDS011;6801;53.018;11.560;2023-07-20T02:21:23;5.45;;;1.85;;
13457;SDS011;6801;53.018;11.560;2023-07-20T02:23:52;8.07;;;2.65;;
13457;SDS011;6801;53.018;11.560;2023-07-20T02:26:19;1.77;;;1.20;;
13457;SDS011;6801;53.018;11.560;2023-07-20T02:28:46;5.28;;;2.40;;
13457;SDS011;6801;53.018;11.560;2023-07-20T02:31:13;6.68;;;1.80;;
13457;SDS011;6801;53.018;11.560;2023-07-20T02:33:40;2.92;;;2.30;;
13457;SDS011;6801;53.018;11.560;2023-07-20T02:36:07;5.28;;;2.80;;
13457;SDS011;6801;53.018;11.560;2023-07-20T02:38:34;3.58;;;1.10;;
13457;SDS011;6801;53.018;11.560;2023-07-20T02:41:03;2.30;;;1.10;;
13457;SDS011;6801;53.018;11.560;2023-07-20T02:43:30;4.10;;;1.20;;
13457;SDS011;6801;53.018;11.560;2023-07-20T02:45:57;2.17;;;1.08;;
13457;SDS011;6801;53.018;11.560;2023-07-20T02:48:24;3.63;;;1.60;;
13457;SDS011;6801;53.018;11.560;2023-07-20T02:50:51;3.83;;;1.63;;
13457;SDS011;6801;53.018;11.560;2023-07-20T02:53:18;2.50;;;0.80;;
13457;SDS011;6801;53.018;11.560;2023-07-20T02:55:45;1.55;;;1.15;;
13457;SDS011;6801;53.018;11.560;2023-07-20T02:58:14;2.92;;;1.80;;
13457;SDS011;6801;53.018;11.560;2023-07-20T03:00:42;3.05;;;1.27;;
13457;SDS011;6801;53.018;11.560;2023-07-20T03:03:09;2.13;;;1.23;;
13457;SDS011;6801;53.018;11.560;2023-07-20T03:05:36;2.95;;;1.25;;
13457;SDS011;6801;53.018;11.560;2023-07-20T03:08:05;1.83;;;1.15;;
13457;SDS011;6801;53.018;11.560;2023-07-20T03:10:33;2.53;;;1.40;;
13457;SDS011;6801;53.018;11.560;2023-07-20T03:13:04;2.38;;;1.20;;
13457;SDS011;6801;53.018;11.560;2023-07-20T03:15:33;4.32;;;1.70;;
13457;SDS011;6801;53.018;11.560;2023-07-20T03:18:01;4.47;;;2.67;;
13457;SDS011;6801;53.018;11.560;2023-07-20T03:20:28;3.90;;;2.00;;
13457;SDS011;6801;53.018;11.560;2023-07-20T03:22:55;3.10;;;2.00;;
13457;SDS011;6801;53.018;11.560;2023-07-20T03:25:22;2.97;;;1.77;;
13457;SDS011;6801;53.018;11.560;2023-07-20T03:27:49;2.53;;;1.52;;
13457;SDS011;6801;53.018;11.560;2023-07-20T03:30:16;3.40;;;2.10;;
13457;SDS011;6801;53.018;11.560;2023-07-20T03:32:45;4.20;;;2.58;;
13457;SDS011;6801;53.018;11.560;2023-07-20T03:35:12;3.63;;;1.70;;
13457;SDS011;6801;53.018;11.560;2023-07-20T03:37:40;4.18;;;2.97;;
13457;SDS011;6801;53.018;11.560;2023-07-20T03:40:09;3.30;;;1.75;;
13457;SDS011;6801;53.018;11.560;2023-07-20T03:42:36;2.38;;;1.88;;
13457;SDS011;6801;53.018;11.560;2023-07-20T03:45:04;3.38;;;1.60;;
13457;SDS011;6801;53.018;11.560;2023-07-20T03:47:32;4.65;;;3.15;;
13457;SDS011;6801;53.018;11.560;2023-07-20T03:50:01;4.57;;;2.80;;
13457;SDS011;6801;53.018;11.560;2023-07-20T03:52:28;2.15;;;1.80;;
13457;SDS011;6801;53.018;11.560;2023-07-20T03:54:55;1.73;;;1.45;;
13457;SDS011;6801;53.018;11.560;2023-07-20T03:57:22;5.32;;;1.77;;
13457;SDS011;6801;53.018;11.560;2023-07-20T03:59:49;3.90;;;3.00;;
13457;SDS011;6801;53.018;11.560;2023-07-20T04:02:16;4.55;;;2.83;;
13457;SDS011;6801;53.018;11.560;2023-07-20T04:04:44;5.38;;;2.50;;
13457;SDS011;6801;53.018;11.560;2023-07-20T04:07:12;4.22;;;3.20;;
13457;SDS011;6801;53.018;11.560;2023-07-20T04:09:42;7.78;;;3.40;;
13457;SDS011;6801;53.018;11.560;2023-07-20T04:12:09;5.20;;;3.42;;
13457;SDS011;6801;53.018;11.560;2023-07-20T04:14:36;5.30;;;3.40;;
13457;SDS011;6801;53.018;11.560;2023-07-20T04:17:03;4.93;;;3.25;;
13457;SDS011;6801;53.018;11.560;2023-07-20T04:19:31;5.22;;;2.42;;
13457;SDS011;6801;53.018;11.560;2023-07-20T04:21:57;5.22;;;3.33;;
13457;SDS011;6801;53.018;11.560;2023-07-20T04:24:26;2.17;;;1.73;;
13457;SDS011;6801;53.018;11.560;2023-07-20T04:26:53;4.63;;;2.90;;
13457;SDS011;6801;53.018;11.560;2023-07-20T04:29:20;6.28;;;3.45;;
13457;SDS011;6801;53.018;11.560;2023-07-20T04:31:47;4.65;;;2.00;;
13457;SDS011;6801;53.018;11.560;2023-07-20T04:34:14;4.30;;;2.38;;
13457;SDS011;6801;53.018;11.560;2023-07-20T04:36:43;3.80;;;1.90;;
13457;SDS011;6801;53.018;11.560;2023-07-20T04:39:10;4.32;;;3.05;;
13457;SDS011;6801;53.018;11.560;2023-07-20T04:41:43;4.53;;;2.60;;
13457;SDS011;6801;53.018;11.560;2023-07-20T04:44:10;2.38;;;1.70;;
13457;SDS011;6801;53.018;11.560;2023-07-20T04:46:37;5.13;;;2.70;;
13457;SDS011;6801;53.018;11.560;2023-07-20T04:49:05;3.90;;;1.92;;
13457;SDS011;6801;53.018;11.560;2023-07-20T04:51:37;4.30;;;2.50;;
13457;SDS011;6801;53.018;11.560;2023-07-20T04:54:04;3.67;;;2.35;;
13457;SDS011;6801;53.018;11.560;2023-07-20T04:56:35;5.00;;;1.90;;
13457;SDS011;6801;53.018;11.560;2023-07-20T04:59:06;5.78;;;1.67;;
13457;SDS011;6801;53.018;11.560;2023-07-20T05:01:33;4.13;;;1.73;;
13457;SDS011;6801;53.018;11.560;2023-07-20T05:04:00;5.68;;;2.33;;
13457;SDS011;6801;53.018;11.560;2023-07-20T05:06:27;3.08;;;2.08;;
13457;SDS011;6801;53.018;11.560;2023-07-20T05:08:55;4.13;;;2.15;;
13457;SDS011;6801;53.018;11.560;2023-07-20T05:11:22;3.88;;;1.52;;
13457;SDS011;6801;53.018;11.560;2023-07-20T05:13:49;4.32;;;1.92;;
13457;SDS011;6801;53.018;11.560;2023-07-20T05:16:18;2.90;;;1.23;;
13457;SDS011;6801;53.018;11.560;2023-07-20T05:18:45;3.05;;;1.73;;
13457;SDS011;6801;53.018;11.560;2023-07-20T05:21:13;4.80;;;2.20;;
13457;SDS011;6801;53.018;11.560;2023-07-20T05:23:41;3.08;;;1.70;;
13457;SDS011;6801;53.018;11.560;2023-07-20T05:26:08;4.50;;;1.75;;
13457;SDS011;6801;53.018;11.560;2023-07-20T05:28:35;2.20;;;1.15;;
13457;SDS011;6801;53.018;11.560;2023-07-20T05:31:02;3.88;;;1.92;;
13457;SDS011;6801;53.018;11.560;2023-07-20T05:33:30;2.08;;;1.55;;
13457;SDS011;6801;53.018;11.560;2023-07-20T05:35:57;2.95;;;1.50;;
13457;SDS011;6801;53.018;11.560;2023-07-20T05:38:25;2.88;;;1.48;;
13457;SDS011;6801;53.018;11.560;2023-07-20T05:40:52;3.75;;;1.42;;
13457;SDS011;6801;53.018;11.560;2023-07-20T05:43:25;1.98;;;1.45;;
13457;SDS011;6801;53.018;11.560;2023-07-20T05:45:52;2.47;;;1.30;;
13457;SDS011;6801;53.018;11.560;2023-07-20T05:48:19;2.95;;;1.08;;
13457;SDS011;6801;53.018;11.560;2023-07-20T05:50:47;4.28;;;1.15;;
13457;SDS011;6801;53.018;11.560;2023-07-20T05:53:14;4.00;;;1.25;;
13457;SDS011;6801;53.018;11.560;2023-07-20T05:55:41;2.13;;;1.25;;
13457;SDS011;6801;53.018;11.560;2023-07-20T05:58:08;1.90;;;1.08;;
13457;SDS011;6801;53.018;11.560;2023-07-20T06:00:35;1.83;;;1.05;;
13457;SDS011;6801;53.018;11.560;2023-07-20T06:03:03;1.45;;;0.77;;
13457;SDS011;6801;53.018;11.560;2023-07-20T06:05:30;1.20;;;0.70;;
13457;SDS011;6801;53.018;11.560;2023-07-20T06:07:58;1.27;;;0.70;;
13457;SDS011;6801;53.018;11.560;2023-07-20T06:10:26;1.98;;;0.70;;
13457;SDS011;6801;53.018;11.560;2023-07-20T06:12:53;8.60;;;1.25;;
13457;SDS011;6801;53.018;11.560;2023-07-20T06:15:24;3.30;;;0.47;;
13457;SDS011;6801;53.018;11.560;2023-07-20T06:17:54;4.60;;;1.10;;
13457;SDS011;6801;53.018;11.560;2023-07-20T06:22:53;2.60;;;0.68;;
13457;SDS011;6801;53.018;11.560;2023-07-20T06:25:21;2.33;;;0.60;;
13457;SDS011;6801;53.018;11.560;2023-07-20T06:27:49;1.10;;;0.82;;
13457;SDS011;6801;53.018;11.560;2023-07-20T06:30:16;3.08;;;0.77;;
13457;SDS011;6801;53.018;11.560;2023-07-20T06:32:43;3.90;;;0.70;;
13457;SDS011;6801;53.018;11.560;2023-07-20T06:35:10;2.70;;;0.98;;
13457;SDS011;6801;53.018;11.560;2023-07-20T06:37:37;2.05;;;0.80;;
13457;SDS011;6801;53.018;11.560;2023-07-20T06:40:05;2.38;;;0.52;;
13457;SDS011;6801;53.018;11.560;2023-07-20T06:42:35;0.85;;;0.68;;
13457;SDS011;6801;53.018;11.560;2023-07-20T06:45:03;1.30;;;0.50;;
13457;SDS011;6801;53.018;11.560;2023-07-20T06:47:30;1.58;;;0.85;;
13457;SDS011;6801;53.018;11.560;2023-07-20T06:49:57;0.75;;;0.50;;
13457;SDS011;6801;53.018;11.560;2023-07-20T06:52:24;1.30;;;0.75;;
13457;SDS011;6801;53.018;11.560;2023-07-20T06:54:51;1.45;;;0.60;;
13457;SDS011;6801;53.018;11.560;2023-07-20T06:57:18;1.23;;;0.70;;
13457;SDS011;6801;53.018;11.560;2023-07-20T06:59:47;0.90;;;0.45;;
13457;SDS011;6801;53.018;11.560;2023-07-20T07:02:14;1.45;;;0.60;;
13457;SDS011;6801;53.018;11.560;2023-07-20T07:04:41;1.52;;;0.63;;
13457;SDS011;6801;53.018;11.560;2023-07-20T07:07:08;0.55;;;0.40;;
13457;SDS011;6801;53.018;11.560;2023-07-20T07:09:35;3.00;;;0.63;;
13457;SDS011;6801;53.018;11.560;2023-07-20T07:12:02;1.45;;;0.80;;
13457;SDS011;6801;53.018;11.560;2023-07-20T07:14:30;1.55;;;0.73;;
13457;SDS011;6801;53.018;11.560;2023-07-20T07:16:58;1.25;;;0.98;;
13457;SDS011;6801;53.018;11.560;2023-07-20T07:19:25;1.60;;;0.77;;
13457;SDS011;6801;53.018;11.560;2023-07-20T07:21:52;1.67;;;0.50;;
13457;SDS011;6801;53.018;11.560;2023-07-20T07:24:19;2.13;;;0.85;;
13457;SDS011;6801;53.018;11.560;2023-07-20T07:26:46;0.70;;;0.60;;
13457;SDS011;6801;53.018;11.560;2023-07-20T07:29:13;1.50;;;0.40;;
13457;SDS011;6801;53.018;11.560;2023-07-20T07:31:40;2.70;;;0.60;;
13457;SDS011;6801;53.018;11.560;2023-07-20T07:34:08;0.85;;;0.50;;
13457;SDS011;6801;53.018;11.560;2023-07-20T07:36:35;1.92;;;0.52;;
13457;SDS011;6801;53.018;11.560;2023-07-20T07:39:02;2.63;;;0.70;;
13457;SDS011;6801;53.018;11.560;2023-07-20T07:41:29;3.15;;;0.90;;
13457;SDS011;6801;53.018;11.560;2023-07-20T07:43:56;1.83;;;0.25;;
13457;SDS011;6801;53.018;11.560;2023-07-20T07:46:23;1.65;;;0.50;;
13457;SDS011;6801;53.018;11.560;2023-07-20T07:48:50;2.15;;;0.40;;
13457;SDS011;6801;53.018;11.560;2023-07-20T07:51:19;0.50;;;0.40;;
13457;SDS011;6801;53.018;11.560;2023-07-20T07:53:46;1.77;;;0.50;;
13457;SDS011;6801;53.018;11.560;2023-07-20T07:56:14;1.88;;;0.90;;
13457;SDS011;6801;53.018;11.560;2023-07-20T07:58:41;2.40;;;0.50;;
13457;SDS011;6801;53.018;11.560;2023-07-20T08:01:08;0.90;;;0.60;;
13457;SDS011;6801;53.018;11.560;2023-07-20T08:03:35;1.00;;;0.40;;
13457;SDS011;6801;53.018;11.560;2023-07-20T08:06:02;0.90;;;0.40;;
13457;SDS011;6801;53.018;11.560;2023-07-20T08:08:32;3.70;;;0.40;;
13457;SDS011;6801;53.018;11.560;2023-07-20T08:10:59;2.25;;;0.35;;
13457;SDS011;6801;53.018;11.560;2023-07-20T08:13:26;0.28;;;0.22;;
13457;SDS011;6801;53.018;11.560;2023-07-20T08:15:53;2.92;;;0.40;;
13457;SDS011;6801;53.018;11.560;2023-07-20T08:18:20;4.25;;;0.40;;
13457;SDS011;6801;53.018;11.560;2023-07-20T08:20:47;1.30;;;0.35;;
13457;SDS011;6801;53.018;11.560;2023-07-20T08:23:15;2.42;;;0.50;;
13457;SDS011;6801;53.018;11.560;2023-07-20T08:25:43;0.90;;;0.20;;
13457;SDS011;6801;53.018;11.560;2023-07-20T08:28:10;2.53;;;0.35;;
13457;SDS011;6801;53.018;11.560;2023-07-20T08:30:41;0.90;;;0.20;;
13457;SDS011;6801;53.018;11.560;2023-07-20T08:33:09;1.00;;;0.40;;
13457;SDS011;6801;53.018;11.560;2023-07-20T08:35:36;1.50;;;0.25;;
13457;SDS011;6801;53.018;11.560;2023-07-20T08:38:03;2.65;;;0.20;;
13457;SDS011;6801;53.018;11.560;2023-07-20T08:40:31;1.38;;;0.30;;
13457;SDS011;6801;53.018;11.560;2023-07-20T08:42:59;0.93;;;0.30;;
13457;SDS011;6801;53.018;11.560;2023-07-20T08:45:27;0.60;;;0.30;;
13457;SDS011;6801;53.018;11.560;2023-07-20T08:47:56;0.57;;;0.28;;
13457;SDS011;6801;53.018;11.560;2023-07-20T08:50:25;1.63;;;0.43;;
13457;SDS011;6801;53.018;11.560;2023-07-20T08:52:54;1.40;;;0.20;;
13457;SDS011;6801;53.018;11.560;2023-07-20T08:55:23;1.10;;;0.30;;
13457;SDS011;6801;53.018;11.560;2023-07-20T08:57:51;1.02;;;0.32;;
13457;SDS011;6801;53.018;11.560;2023-07-20T09:00:22;1.70;;;0.30;;
13457;SDS011;6801;53.018;11.560;2023-07-20T09:02:51;1.05;;;0.32;;
13457;SDS011;6801;53.018;11.560;2023-07-20T09:05:19;1.50;;;0.30;;
13457;SDS011;6801;53.018;11.560;2023-07-20T09:07:47;2.17;;;0.20;;
13457;SDS011;6801;53.018;11.560;2023-07-20T09:10:14;2.65;;;0.22;;
13457;SDS011;6801;53.018;11.560;2023-07-20T09:12:41;3.83;;;0.40;;
13457;SDS011;6801;53.018;11.560;2023-07-20T09:15:09;3.03;;;0.55;;
13457;SDS011;6801;53.018;11.560;2023-07-20T09:17:39;2.53;;;0.47;;
13457;SDS011;6801;53.018;11.560;2023-07-20T09:20:11;0.80;;;0.30;;
13457;SDS011;6801;53.018;11.560;2023-07-20T09:22:40;1.58;;;0.40;;
13457;SDS011;6801;53.018;11.560;2023-07-20T09:25:11;0.75;;;0.40;;
13457;SDS011;6801;53.018;11.560;2023-07-20T09:27:40;1.98;;;0.20;;
13457;SDS011;6801;53.018;11.560;2023-07-20T09:30:07;1.85;;;0.28;;
13457;SDS011;6801;53.018;11.560;2023-07-20T09:32:43;3.42;;;0.30;;
13457;SDS011;6801;53.018;11.560;2023-07-20T09:35:14;1.58;;;0.20;;
13457;SDS011;6801;53.018;11.560;2023-07-20T09:37:49;1.88;;;0.40;;
13457;SDS011;6801;53.018;11.560;2023-07-20T09:40:21;2.92;;;0.43;;
13457;SDS011;6801;53.018;11.560;2023-07-20T09:42:48;1.55;;;0.30;;
13457;SDS011;6801;53.018;11.560;2023-07-20T09:45:19;3.40;;;0.32;;
13457;SDS011;6801;53.018;11.560;2023-07-20T09:47:47;1.80;;;0.38;;
13457;SDS011;6801;53.018;11.560;2023-07-20T09:50:14;1.85;;;0.30;;
13457;SDS011;6801;53.018;11.560;2023-07-20T09:52:42;4.22;;;0.32;;
13457;SDS011;6801;53.018;11.560;2023-07-20T09:55:10;1.88;;;0.30;;
13457;SDS011;6801;53.018;11.560;2023-07-20T09:57:39;0.77;;;0.28;;
13457;SDS011;6801;53.018;11.560;2023-07-20T10:00:07;0.93;;;0.20;;
13457;SDS011;6801;53.018;11.560;2023-07-20T10:02:40;2.08;;;0.20;;
13457;SDS011;6801;53.018;11.560;2023-07-20T10:05:10;0.52;;;0.20;;
13457;SDS011;6801;53.018;11.560;2023-07-20T10:07:40;2.17;;;0.30;;
13457;SDS011;6801;53.018;11.560;2023-07-20T10:10:11;0.88;;;0.30;;
13457;SDS011;6801;53.018;11.560;2023-07-20T10:12:42;1.10;;;0.30;;
13457;SDS011;6801;53.018;11.560;2023-07-20T10:15:15;0.57;;;0.20;;
13457;SDS011;6801;53.018;11.560;2023-07-20T10:17:47;0.35;;;0.20;;
13457;SDS011;6801;53.018;11.560;2023-07-20T10:20:24;1.27;;;0.30;;
13457;SDS011;6801;53.018;11.560;2023-07-20T10:22:53;2.23;;;0.27;;
13457;SDS011;6801;53.018;11.560;2023-07-20T10:25:22;1.35;;;0.20;;
13457;SDS011;6801;53.018;11.560;2023-07-20T10:27:49;2.00;;;0.55;;
13457;SDS011;6801;53.018;11.560;2023-07-20T10:30:17;1.23;;;0.20;;
13457;SDS011;6801;53.018;11.560;2023-07-20T10:32:45;0.85;;;0.30;;
13457;SDS011;6801;53.018;11.560;2023-07-20T10:35:13;2.83;;;0.25;;
13457;SDS011;6801;53.018;11.560;2023-07-20T10:37:52;1.05;;;0.30;;
13457;SDS011;6801;53.018;11.560;2023-07-20T10:40:24;3.72;;;0.28;;
13457;SDS011;6801;53.018;11.560;2023-07-20T10:43:02;0.28;;;0.20;;
13457;SDS011;6801;53.018;11.560;2023-07-20T10:45:37;1.17;;;0.30;;
13457;SDS011;6801;53.018;11.560;2023-07-20T10:48:12;1.70;;;0.55;;
13457;SDS011;6801;53.018;11.560;2023-07-20T10:50:41;0.85;;;0.30;;
13457;SDS011;6801;53.018;11.560;2023-07-20T10:53:13;1.17;;;0.30;;
13457;SDS011;6801;53.018;11.560;2023-07-20T10:55:41;0.55;;;0.20;;
13457;SDS011;6801;53.018;11.560;2023-07-20T10:58:09;1.67;;;0.30;;
13457;SDS011;6801;53.018;11.560;2023-07-20T11:00:56;0.65;;;0.22;;
13457;SDS011;6801;53.018;11.560;2023-07-20T11:03:31;4.70;;;0.38;;
13457;SDS011;6801;53.018;11.560;2023-07-20T11:05:59;2.33;;;0.30;;
13457;SDS011;6801;53.018;11.560;2023-07-20T11:08:47;0.90;;;0.30;;
13457;SDS011;6801;53.018;11.560;2023-07-20T11:11:20;1.60;;;0.40;;
13457;SDS011;6801;53.018;11.560;2023-07-20T11:13:54;1.30;;;0.30;;
13457;SDS011;6801;53.018;11.560;2023-07-20T11:19:14;2.17;;;0.40;;
13457;SDS011;6801;53.018;11.560;2023-07-20T11:21:43;1.60;;;0.20;;
13457;SDS011;6801;53.018;11.560;2023-07-20T11:24:13;0.73;;;0.20;;
13457;SDS011;6801;53.018;11.560;2023-07-20T11:26:40;1.75;;;0.20;;
13457;SDS011;6801;53.018;11.560;2023-07-20T11:29:12;0.98;;;0.20;;
13457;SDS011;6801;53.018;11.560;2023-07-20T11:31:40;0.20;;;0.10;;
13457;SDS011;6801;53.018;11.560;2023-07-20T11:34:09;1.38;;;0.20;;
13457;SDS011;6801;53.018;11.560;2023-07-20T11:36:38;0.88;;;0.38;;
13457;SDS011;6801;53.018;11.560;2023-07-20T11:39:07;0.45;;;0.25;;
13457;SDS011;6801;53.018;11.560;2023-07-20T11:41:36;0.40;;;0.20;;
13457;SDS011;6801;53.018;11.560;2023-07-20T11:44:05;0.52;;;0.17;;
13457;SDS011;6801;53.018;11.560;2023-07-20T11:46:33;4.68;;;0.40;;
13457;SDS011;6801;53.018;11.560;2023-07-20T11:49:01;0.65;;;0.30;;
13457;SDS011;6801;53.018;11.560;2023-07-20T11:51:29;0.73;;;0.30;;
13457;SDS011;6801;53.018;11.560;2023-07-20T11:53:57;0.22;;;0.17;;
13457;SDS011;6801;53.018;11.560;2023-07-20T11:56:25;0.82;;;0.35;;
13457;SDS011;6801;53.018;11.560;2023-07-20T11:58:56;0.93;;;0.30;;
13457;SDS011;6801;53.018;11.560;2023-07-20T12:01:26;0.63;;;0.52;;
13457;SDS011;6801;53.018;11.560;2023-07-20T12:03:56;0.60;;;0.20;;
13457;SDS011;6801;53.018;11.560;2023-07-20T12:06:24;2.38;;;0.38;;
13457;SDS011;6801;53.018;11.560;2023-07-20T12:08:54;0.68;;;0.20;;
13457;SDS011;6801;53.018;11.560;2023-07-20T12:11:34;0.40;;;0.30;;
13457;SDS011;6801;53.018;11.560;2023-07-20T12:14:03;1.35;;;0.35;;
13457;SDS011;6801;53.018;11.560;2023-07-20T12:16:33;0.60;;;0.20;;
13457;SDS011;6801;53.018;11.560;2023-07-20T12:19:03;1.98;;;0.20;;
13457;SDS011;6801;53.018;11.560;2023-07-20T12:21:32;0.98;;;0.40;;
13457;SDS011;6801;53.018;11.560;2023-07-20T12:24:00;1.75;;;0.25;;
13457;SDS011;6801;53.018;11.560;2023-07-20T12:26:29;2.30;;;0.30;;
13457;SDS011;6801;53.018;11.560;2023-07-20T12:28:56;1.20;;;0.47;;
13457;SDS011;6801;53.018;11.560;2023-07-20T12:31:25;1.70;;;0.30;;
13457;SDS011;6801;53.018;11.560;2023-07-20T12:33:56;1.95;;;0.47;;
13457;SDS011;6801;53.018;11.560;2023-07-20T12:36:23;2.65;;;0.60;;
13457;SDS011;6801;53.018;11.560;2023-07-20T12:38:51;1.13;;;0.50;;
13457;SDS011;6801;53.018;11.560;2023-07-20T12:41:18;3.47;;;0.50;;
13457;SDS011;6801;53.018;11.560;2023-07-20T12:43:45;1.65;;;0.40;;
13457;SDS011;6801;53.018;11.560;2023-07-20T12:46:12;0.63;;;0.20;;
13457;SDS011;6801;53.018;11.560;2023-07-20T12:48:41;0.90;;;0.40;;
13457;SDS011;6801;53.018;11.560;2023-07-20T12:51:09;0.45;;;0.32;;
13457;SDS011;6801;53.018;11.560;2023-07-20T12:53:37;4.22;;;0.43;;
13457;SDS011;6801;53.018;11.560;2023-07-20T12:56:04;0.73;;;0.30;;
13457;SDS011;6801;53.018;11.560;2023-07-20T12:58:31;0.70;;;0.30;;
13457;SDS011;6801;53.018;11.560;2023-07-20T13:00:58;1.42;;;0.50;;
13457;SDS011;6801;53.018;11.560;2023-07-20T13:03:25;1.13;;;0.40;;
13457;SDS011;6801;53.018;11.560;2023-07-20T13:05:54;1.67;;;0.32;;
13457;SDS011;6801;53.018;11.560;2023-07-20T13:08:23;1.40;;;0.45;;
13457;SDS011;6801;53.018;11.560;2023-07-20T13:10:52;1.48;;;0.38;;
13457;SDS011;6801;53.018;11.560;2023-07-20T13:13:19;1.85;;;0.30;;
13457;SDS011;6801;53.018;11.560;2023-07-20T13:15:46;1.52;;;0.60;;
13457;SDS011;6801;53.018;11.560;2023-07-20T13:18:14;1.63;;;0.47;;
13457;SDS011;6801;53.018;11.560;2023-07-20T13:20:41;2.22;;;0.30;;
13457;SDS011;6801;53.018;11.560;2023-07-20T13:23:09;1.20;;;0.50;;
13457;SDS011;6801;53.018;11.560;2023-07-20T13:25:36;1.70;;;0.60;;
13457;SDS011;6801;53.018;11.560;2023-07-20T13:28:04;1.45;;;0.40;;
13457;SDS011;6801;53.018;11.560;2023-07-20T13:30:31;1.80;;;0.50;;
13457;SDS011;6801;53.018;11.560;2023-07-20T13:32:58;0.75;;;0.32;;
13457;SDS011;6801;53.018;11.560;2023-07-20T13:35:25;1.00;;;0.50;;
13457;SDS011;6801;53.018;11.560;2023-07-20T13:37:52;1.95;;;0.65;;
13457;SDS011;6801;53.018;11.560;2023-07-20T13:40:21;1.35;;;0.47;;
13457;SDS011;6801;53.018;11.560;2023-07-20T13:42:48;2.53;;;0.68;;
13457;SDS011;6801;53.018;11.560;2023-07-20T13:45:15;1.52;;;0.68;;
13457;SDS011;6801;53.018;11.560;2023-07-20T13:47:42;1.15;;;0.40;;
13457;SDS011;6801;53.018;11.560;2023-07-20T13:50:10;2.08;;;0.50;;
13457;SDS011;6801;53.018;11.560;2023-07-20T13:52:37;1.45;;;0.60;;
13457;SDS011;6801;53.018;11.560;2023-07-20T13:55:04;1.15;;;0.40;;
13457;SDS011;6801;53.018;11.560;2023-07-20T13:57:32;1.25;;;0.40;;
13457;SDS011;6801;53.018;11.560;2023-07-20T13:59:59;7.05;;;1.40;;
13457;SDS011;6801;53.018;11.560;2023-07-20T14:02:37;3.80;;;0.50;;
13457;SDS011;6801;53.018;11.560;2023-07-20T14:05:04;1.50;;;0.80;;
13457;SDS011;6801;53.018;11.560;2023-07-20T14:07:32;1.65;;;0.65;;
13457;SDS011;6801;53.018;11.560;2023-07-20T14:09:59;1.40;;;0.50;;
13457;SDS011;6801;53.018;11.560;2023-07-20T14:12:26;1.15;;;0.32;;
13457;SDS011;6801;53.018;11.560;2023-07-20T14:14:54;3.10;;;0.60;;
13457;SDS011;6801;53.018;11.560;2023-07-20T14:17:21;1.92;;;0.30;;
13457;SDS011;6801;53.018;11.560;2023-07-20T14:19:48;1.45;;;0.55;;
13457;SDS011;6801;53.018;11.560;2023-07-20T14:22:16;1.65;;;0.50;;
13457;SDS011;6801;53.018;11.560;2023-07-20T14:24:43;2.03;;;0.40;;
13457;SDS011;6801;53.018;11.560;2023-07-20T14:27:10;3.53;;;0.45;;
13457;SDS011;6801;53.018;11.560;2023-07-20T14:29:38;2.58;;;0.60;;
13457;SDS011;6801;53.018;11.560;2023-07-20T14:32:06;2.53;;;0.32;;
13457;SDS011;6801;53.018;11.560;2023-07-20T14:34:34;0.90;;;0.40;;
13457;SDS011;6801;53.018;11.560;2023-07-20T14:37:01;3.22;;;0.50;;
13457;SDS011;6801;53.018;11.560;2023-07-20T14:39:29;1.80;;;0.40;;
13457;SDS011;6801;53.018;11.560;2023-07-20T14:41:56;1.50;;;0.40;;
13457;SDS011;6801;53.018;11.560;2023-07-20T14:44:24;4.22;;;0.60;;
13457;SDS011;6801;53.018;11.560;2023-07-20T14:46:51;1.70;;;0.70;;
13457;SDS011;6801;53.018;11.560;2023-07-20T14:49:19;1.73;;;0.40;;
13457;SDS011;6801;53.018;11.560;2023-07-20T14:51:46;4.80;;;0.38;;
13457;SDS011;6801;53.018;11.560;2023-07-20T14:54:14;2.78;;;0.43;;
13457;SDS011;6801;53.018;11.560;2023-07-20T14:56:48;1.10;;;0.20;;
13457;SDS011;6801;53.018;11.560;2023-07-20T14:59:16;1.25;;;0.20;;
13457;SDS011;6801;53.018;11.560;2023-07-20T15:01:43;0.93;;;0.20;;